createdAt,value
2023-01-17T00:02:16.038Z,12.63
2023-01-17T00:05:01.944Z,11.20
2023-01-17T00:07:47.591Z,11.85
2023-01-17T00:10:19.017Z,11.68
2023-01-17T00:12:55.103Z,12.10
2023-01-17T00:15:24.240Z,11.77
2023-01-17T00:17:52.488Z,12.13
2023-01-17T00:20:44.175Z,12.02
2023-01-17T00:24:00.853Z,11.00
2023-01-17T00:26:29.328Z,11.30
2023-01-17T00:28:56.188Z,11.63
2023-01-17T00:31:25.402Z,11.57
2023-01-17T00:33:52.292Z,11.23
2023-01-17T00:36:20.372Z,10.65
2023-01-17T00:38:47.253Z,10.85
2023-01-17T00:41:15.374Z,11.13
2023-01-17T00:44:01.004Z,10.77
2023-01-17T00:46:46.689Z,10.70
2023-01-17T00:49:32.393Z,11.13
2023-01-17T00:52:17.814Z,10.82
2023-01-17T00:55:03.614Z,11.02
2023-01-17T00:57:49.208Z,11.43
2023-01-17T01:00:37.249Z,10.88
2023-01-17T01:03:28.115Z,10.68
2023-01-17T01:06:13.866Z,10.35
2023-01-17T01:08:59.610Z,10.48
2023-01-17T01:11:45.215Z,9.23
2023-01-17T01:14:30.737Z,9.45
2023-01-17T01:17:16.301Z,9.45
2023-01-17T01:20:01.974Z,9.52
2023-01-17T01:22:47.667Z,9.75
2023-01-17T01:25:33.389Z,9.05
2023-01-17T01:28:28.658Z,8.95
2023-01-17T01:31:14.416Z,9.20
2023-01-17T01:33:41.393Z,9.25
2023-01-17T01:36:10.508Z,8.25
2023-01-17T01:38:38.311Z,8.38
2023-01-17T01:41:05.529Z,8.38
2023-01-17T01:43:53.356Z,8.80
2023-01-17T01:46:20.266Z,7.60
2023-01-17T01:48:55.755Z,7.85
2023-01-17T01:51:39.971Z,7.75
2023-01-17T01:54:15.653Z,7.82
2023-01-17T01:56:43.398Z,7.63
2023-01-17T01:59:13.900Z,7.35
2023-01-17T02:01:41.063Z,7.00
2023-01-17T02:04:10.202Z,7.75
2023-01-17T02:06:49.105Z,7.30
2023-01-17T02:09:20.228Z,7.65
2023-01-17T02:11:49.104Z,7.22
2023-01-17T02:14:21.069Z,6.50
2023-01-17T02:17:09.586Z,7.28
2023-01-17T02:20:13.584Z,7.05
2023-01-17T02:23:11.287Z,7.15
2023-01-17T02:25:38.148Z,6.70
2023-01-17T02:28:42.261Z,7.45
2023-01-17T02:31:22.252Z,6.50
2023-01-17T02:34:19.466Z,7.40
2023-01-17T02:37:15.521Z,7.38
2023-01-17T02:40:11.636Z,7.70
2023-01-17T02:42:46.607Z,7.50
2023-01-17T02:45:18.833Z,7.38
2023-01-17T02:47:46.029Z,7.68
2023-01-17T02:50:18.326Z,7.82
2023-01-17T02:53:00.621Z,7.15
2023-01-17T02:55:30.302Z,7.13
2023-01-17T02:58:31.553Z,8.48
2023-01-17T03:03:53.389Z,8.27
2023-01-17T03:06:30.531Z,7.63
2023-01-17T03:08:57.415Z,7.80
2023-01-17T03:11:27.617Z,8.07
2023-01-17T03:13:56.272Z,8.05
2023-01-17T03:16:25.621Z,8.23
2023-01-17T03:18:54.945Z,7.60
2023-01-17T03:21:23.494Z,7.18
2023-01-17T03:23:50.695Z,7.80
2023-01-17T03:26:17.818Z,7.40
2023-01-17T03:28:46.957Z,8.20
2023-01-17T03:31:18.136Z,7.53
2023-01-17T03:33:45.033Z,7.88
2023-01-17T03:36:14.448Z,7.88
2023-01-17T03:38:41.938Z,8.20
2023-01-17T03:41:11.011Z,7.75
2023-01-17T03:43:38.783Z,8.07
2023-01-17T03:46:08.197Z,7.65
2023-01-17T03:48:35.164Z,7.38
2023-01-17T03:51:02.103Z,6.90
2023-01-17T03:53:29.006Z,6.85
2023-01-17T03:55:55.950Z,7.03
2023-01-17T03:58:22.985Z,6.90
2023-01-17T04:00:49.921Z,5.85
2023-01-17T04:03:16.845Z,6.38
2023-01-17T04:05:43.819Z,6.07
2023-01-17T04:08:10.766Z,5.40
2023-01-17T04:10:37.711Z,5.93
2023-01-17T04:13:04.714Z,6.18
2023-01-17T04:15:31.691Z,5.90
2023-01-17T04:17:58.762Z,5.55
2023-01-17T04:20:38.620Z,5.30
2023-01-17T04:23:06.638Z,5.43
2023-01-17T04:25:33.766Z,5.43
2023-01-17T04:28:02.625Z,4.90
2023-01-17T04:30:30.986Z,4.88
2023-01-17T04:32:58.598Z,5.00
2023-01-17T04:35:25.550Z,5.05
2023-01-17T04:37:53.135Z,5.03
2023-01-17T04:40:20.139Z,4.80
2023-01-17T04:42:48.121Z,4.82
2023-01-17T04:45:15.544Z,5.35
2023-01-17T04:47:42.689Z,4.55
2023-01-17T04:50:10.596Z,5.47
2023-01-17T04:52:37.565Z,4.72
2023-01-17T04:55:05.245Z,5.10
2023-01-17T04:57:32.240Z,4.90
2023-01-17T04:59:59.202Z,4.85
2023-01-17T05:02:26.370Z,4.82
2023-01-17T05:04:53.290Z,5.15
2023-01-17T05:07:20.202Z,4.60
2023-01-17T05:09:47.719Z,4.95
2023-01-17T05:12:14.634Z,4.40
2023-01-17T05:14:41.546Z,4.75
2023-01-17T05:17:11.255Z,5.05
2023-01-17T05:19:38.298Z,4.93
2023-01-17T05:22:14.952Z,4.93
2023-01-17T05:24:46.340Z,5.03
2023-01-17T05:27:14.489Z,4.75
2023-01-17T05:29:41.470Z,4.85
2023-01-17T05:32:08.447Z,4.45
2023-01-17T05:34:35.399Z,4.78
2023-01-17T05:37:02.582Z,4.60
2023-01-17T05:39:31.034Z,4.72
2023-01-17T05:41:58.300Z,4.53
2023-01-17T05:44:27.562Z,4.80
2023-01-17T05:46:55.331Z,4.00
2023-01-17T05:49:22.420Z,4.20
2023-01-17T05:51:49.397Z,4.55
2023-01-17T05:54:16.511Z,4.80
2023-01-17T05:56:43.674Z,4.65
2023-01-17T05:59:13.183Z,4.72
2023-01-17T06:01:41.009Z,4.88
2023-01-17T06:04:07.929Z,4.63
2023-01-17T06:06:34.815Z,4.60
2023-01-17T06:09:01.850Z,4.50
2023-01-17T06:11:28.729Z,4.57
2023-01-17T06:13:55.593Z,4.20
2023-01-17T06:16:22.505Z,4.13
2023-01-17T06:18:49.423Z,4.10
2023-01-17T06:21:16.366Z,4.30
2023-01-17T06:23:43.289Z,4.47
2023-01-17T06:26:10.609Z,4.32
2023-01-17T06:28:37.533Z,5.05
2023-01-17T06:31:09.076Z,4.82
2023-01-17T06:33:36.099Z,4.22
2023-01-17T06:36:03.420Z,4.40
2023-01-17T06:38:30.443Z,4.45
2023-01-17T06:41:00.412Z,4.65
2023-01-17T06:43:29.085Z,4.78
2023-01-17T06:45:58.115Z,4.50
2023-01-17T06:48:25.074Z,4.97
2023-01-17T06:50:52.049Z,4.78
2023-01-17T06:53:18.982Z,4.43
2023-01-17T06:55:45.925Z,4.72
2023-01-17T06:58:12.976Z,4.90
2023-01-17T07:00:41.010Z,4.97
2023-01-17T07:03:23.475Z,4.80
2023-01-17T07:05:51.031Z,4.22
2023-01-17T07:08:19.752Z,4.43
2023-01-17T07:10:47.655Z,4.25
2023-01-17T07:13:14.996Z,5.30
2023-01-17T07:15:42.088Z,4.72
2023-01-17T07:18:09.249Z,4.68
2023-01-17T07:20:36.176Z,5.22
2023-01-17T07:23:03.090Z,4.20
2023-01-17T07:25:29.982Z,4.13
2023-01-17T07:27:57.889Z,4.65
2023-01-17T07:30:25.269Z,4.78
2023-01-17T07:32:53.581Z,5.20
2023-01-17T07:35:21.240Z,5.00
2023-01-17T07:37:51.434Z,4.90
2023-01-17T07:40:20.136Z,4.70
2023-01-17T07:42:47.533Z,5.07
2023-01-17T07:45:16.012Z,4.88
2023-01-17T07:47:43.179Z,4.68
2023-01-17T07:50:10.696Z,4.40
2023-01-17T07:52:37.616Z,4.30
2023-01-17T07:55:05.136Z,4.72
2023-01-17T07:57:32.908Z,4.97
2023-01-17T07:59:59.828Z,4.28
2023-01-17T08:02:26.705Z,4.45
2023-01-17T08:04:53.616Z,5.38
2023-01-17T08:07:20.570Z,5.28
2023-01-17T08:09:49.879Z,12.50
2023-01-17T08:12:17.547Z,5.55
2023-01-17T08:14:45.084Z,5.60
2023-01-17T08:17:18.180Z,5.18
2023-01-17T08:19:45.275Z,5.22
2023-01-17T08:22:12.477Z,4.97
2023-01-17T08:24:39.485Z,4.85
2023-01-17T08:27:06.697Z,4.60
2023-01-17T08:29:33.677Z,5.22
2023-01-17T08:32:00.691Z,5.03
2023-01-17T08:34:27.680Z,5.00
2023-01-17T08:36:54.879Z,4.80
2023-01-17T08:39:22.367Z,5.18
2023-01-17T08:41:50.597Z,5.85
2023-01-17T08:44:19.848Z,5.30
2023-01-17T08:46:46.733Z,5.53
2023-01-17T08:49:13.678Z,5.63
2023-01-17T08:51:40.929Z,6.20
2023-01-17T08:54:09.671Z,5.05
2023-01-17T08:56:36.616Z,5.13
2023-01-17T08:59:03.587Z,5.05
2023-01-17T09:01:40.661Z,5.43
2023-01-17T09:04:09.392Z,5.50
2023-01-17T09:06:41.403Z,6.20
2023-01-17T09:09:11.765Z,5.13
2023-01-17T09:11:38.701Z,5.93
2023-01-17T09:14:05.603Z,5.75
2023-01-17T09:16:32.639Z,5.22
2023-01-17T09:19:07.161Z,5.60
2023-01-17T09:21:34.073Z,6.22
2023-01-17T09:24:00.976Z,6.35
2023-01-17T09:26:29.636Z,6.50
2023-01-17T09:28:57.042Z,5.95
2023-01-17T09:31:24.738Z,5.78
2023-01-17T09:33:53.342Z,5.45
2023-01-17T09:36:20.641Z,4.75
2023-01-17T09:38:48.039Z,5.30
2023-01-17T09:41:24.386Z,4.78
2023-01-17T09:43:59.009Z,5.13
2023-01-17T09:46:31.422Z,5.43
2023-01-17T09:49:26.428Z,5.85
2023-01-17T09:51:54.777Z,5.60
2023-01-17T09:54:24.926Z,5.07
2023-01-17T09:57:19.334Z,5.50
2023-01-17T10:00:15.980Z,5.07
2023-01-17T10:02:54.906Z,5.43
2023-01-17T10:05:39.722Z,5.10
2023-01-17T10:08:28.408Z,5.25
2023-01-17T10:11:29.318Z,5.20
2023-01-17T10:14:03.008Z,5.80
2023-01-17T10:16:58.941Z,5.95
2023-01-17T10:19:31.676Z,5.25
2023-01-17T10:22:02.399Z,5.78
2023-01-17T10:24:38.162Z,5.63
2023-01-17T10:27:34.134Z,5.43
2023-01-17T10:30:21.193Z,5.68
2023-01-17T10:32:50.123Z,5.05
2023-01-17T10:35:31.103Z,5.13
2023-01-17T10:38:00.648Z,4.85
2023-01-17T10:40:46.739Z,5.60
2023-01-17T10:43:17.902Z,5.47
2023-01-17T10:45:53.158Z,5.20
2023-01-17T10:48:49.782Z,5.97
2023-01-17T10:51:50.010Z,7.18
2023-01-17T10:54:44.669Z,6.70
2023-01-17T10:57:24.096Z,5.70
2023-01-17T10:59:52.568Z,6.93
2023-01-17T11:02:33.246Z,5.75
2023-01-17T11:05:05.735Z,6.35
2023-01-17T11:07:32.746Z,5.57
2023-01-17T11:09:59.865Z,6.60
2023-01-17T11:12:39.153Z,6.82
2023-01-17T11:15:06.318Z,6.50
2023-01-17T11:17:37.366Z,6.63
2023-01-17T11:23:19.868Z,5.88
2023-01-17T11:25:58.621Z,6.22
2023-01-17T11:28:34.393Z,6.90
2023-01-17T11:31:06.222Z,6.85
2023-01-17T11:33:55.798Z,6.30
2023-01-17T11:36:31.633Z,6.43
2023-01-17T11:39:22.916Z,6.47
2023-01-17T11:41:51.175Z,6.60
2023-01-17T11:44:32.958Z,6.38
2023-01-17T11:47:12.143Z,5.97
2023-01-17T11:49:47.078Z,6.85
2023-01-17T11:52:24.831Z,6.45
2023-01-17T11:54:55.368Z,6.30
2023-01-17T11:57:31.674Z,7.13
2023-01-17T12:00:22.399Z,7.10
2023-01-17T12:02:58.215Z,7.22
2023-01-17T12:05:56.826Z,7.43
2023-01-17T12:08:52.496Z,7.60
2023-01-17T12:11:32.145Z,7.03
2023-01-17T12:14:08.690Z,6.13
2023-01-17T12:16:44.911Z,6.13
2023-01-17T12:19:34.015Z,6.18
2023-01-17T12:22:33.925Z,6.82
2023-01-17T12:25:16.173Z,7.47
2023-01-17T12:28:01.919Z,6.93
2023-01-17T12:30:53.837Z,7.25
2023-01-17T12:33:23.836Z,7.22
2023-01-17T12:35:56.377Z,6.35
2023-01-17T12:38:34.054Z,7.28
2023-01-17T12:41:06.657Z,7.53
2023-01-17T12:43:44.208Z,7.50
2023-01-17T12:46:21.095Z,8.05
2023-01-17T12:49:02.916Z,7.40
2023-01-17T12:51:41.379Z,6.75
2023-01-17T12:54:40.133Z,7.18
2023-01-17T12:57:14.051Z,7.90
2023-01-17T13:00:02.456Z,8.25
2023-01-17T13:02:41.763Z,8.30
2023-01-17T13:05:42.545Z,8.10
2023-01-17T13:08:41.440Z,9.35
2023-01-17T13:11:15.855Z,9.65
2023-01-17T13:13:43.537Z,8.88
2023-01-17T13:16:22.383Z,9.82
2023-01-17T13:18:51.118Z,9.40
2023-01-17T13:21:32.620Z,9.32
2023-01-17T13:24:10.781Z,9.88
2023-01-17T13:26:56.063Z,9.80
2023-01-17T13:30:00.958Z,10.15
2023-01-17T13:32:46.377Z,10.80
2023-01-17T13:35:26.128Z,10.38
2023-01-17T13:38:00.108Z,10.63
2023-01-17T13:40:34.195Z,11.05
2023-01-17T13:43:12.086Z,11.55
2023-01-17T13:45:39.692Z,10.73
2023-01-17T13:48:13.823Z,12.52
2023-01-17T13:50:58.029Z,10.65
2023-01-17T13:53:37.093Z,10.18
2023-01-17T13:56:36.585Z,11.63
2023-01-17T13:59:05.553Z,11.32
2023-01-17T14:01:38.677Z,30.33
2023-01-17T14:04:09.619Z,11.43
2023-01-17T14:06:44.820Z,11.93
2023-01-17T14:09:19.033Z,11.00
2023-01-17T14:11:57.887Z,11.38
2023-01-17T14:14:39.635Z,12.38
2023-01-17T14:17:25.864Z,11.85
2023-01-17T14:20:01.928Z,12.85
2023-01-17T14:22:36.488Z,12.20
2023-01-17T14:25:14.861Z,11.93
2023-01-17T14:27:54.813Z,11.93
2023-01-17T14:30:27.597Z,13.30
2023-01-17T14:33:03.293Z,13.57
2023-01-17T14:35:39.593Z,13.38
2023-01-17T14:38:21.200Z,13.48
2023-01-17T14:40:57.113Z,13.43
2023-01-17T14:43:26.580Z,13.00
2023-01-17T14:46:02.323Z,13.75
2023-01-17T14:48:29.661Z,13.55
2023-01-17T14:51:00.102Z,13.65
2023-01-17T14:53:31.690Z,13.27
2023-01-17T14:56:02.570Z,13.20
2023-01-17T14:58:34.795Z,13.55
2023-01-17T15:01:10.863Z,12.80
2023-01-17T15:03:51.145Z,13.50
2023-01-17T15:06:20.050Z,13.73
2023-01-17T15:08:47.991Z,13.38
2023-01-17T15:11:22.880Z,13.05
2023-01-17T15:13:53.407Z,13.95
2023-01-17T15:16:35.381Z,13.85
2023-01-17T15:19:09.567Z,13.40
2023-01-17T15:21:40.713Z,12.93
2023-01-17T15:24:13.099Z,13.00
2023-01-17T15:26:43.531Z,13.40
2023-01-17T15:29:24.889Z,13.57
2023-01-17T15:32:00.661Z,12.63
2023-01-17T15:34:37.295Z,13.32
2023-01-17T15:37:10.786Z,13.25
2023-01-17T15:39:43.197Z,13.48
2023-01-17T15:42:25.644Z,13.25
2023-01-17T15:44:56.683Z,14.63
2023-01-17T15:49:57.324Z,11.23
2023-01-17T15:52:24.237Z,13.45
2023-01-17T15:54:58.872Z,14.20
2023-01-17T15:57:37.002Z,13.77
2023-01-17T16:00:19.782Z,13.95
2023-01-17T16:02:47.962Z,13.93
2023-01-17T16:05:24.331Z,13.30
2023-01-17T16:08:18.557Z,13.48
2023-01-17T16:10:45.511Z,14.43
2023-01-17T16:13:13.738Z,14.27
2023-01-17T16:15:41.533Z,15.20
2023-01-17T16:18:15.509Z,15.27
2023-01-17T16:20:50.001Z,16.45
2023-01-17T16:23:17.306Z,15.48
2023-01-17T16:25:44.623Z,17.40
2023-01-17T16:28:11.685Z,16.60
2023-01-17T16:30:42.399Z,16.98
2023-01-17T16:33:12.483Z,17.00
2023-01-17T16:35:40.490Z,23.40
2023-01-17T16:38:14.133Z,19.75
2023-01-17T16:40:44.541Z,19.65
2023-01-17T16:43:12.924Z,20.25
2023-01-17T16:45:48.321Z,19.58
2023-01-17T16:48:17.182Z,19.63
2023-01-17T16:50:52.257Z,19.83
2023-01-17T16:53:24.530Z,20.40
2023-01-17T16:55:54.892Z,22.55
2023-01-17T16:58:22.089Z,22.55
2023-01-17T17:00:49.035Z,22.27
2023-01-17T17:03:24.389Z,20.48
2023-01-17T17:05:57.304Z,23.17
2023-01-17T17:08:24.482Z,21.15
2023-01-17T17:10:52.604Z,21.08
2023-01-17T17:13:27.024Z,21.98
2023-01-17T17:15:54.119Z,22.85
2023-01-17T17:18:21.616Z,22.92
2023-01-17T17:20:56.102Z,21.30
2023-01-17T17:23:23.047Z,22.50
2023-01-17T17:25:56.490Z,23.00
2023-01-17T17:28:23.469Z,23.17
2023-01-17T17:31:00.756Z,21.67
2023-01-17T17:33:27.705Z,24.38
2023-01-17T17:36:02.335Z,24.90
2023-01-17T17:38:29.189Z,23.73
2023-01-17T17:41:04.527Z,25.17
2023-01-17T17:43:34.858Z,25.58
2023-01-17T17:46:04.279Z,25.35
2023-01-17T17:48:31.714Z,25.35
2023-01-17T17:50:59.947Z,25.35
2023-01-17T17:53:27.726Z,26.15
2023-01-17T17:55:54.817Z,25.45
2023-01-17T17:58:22.589Z,26.83
2023-01-17T18:00:50.911Z,27.60
2023-01-17T18:03:17.917Z,25.25
2023-01-17T18:05:46.864Z,27.30
2023-01-17T18:08:14.082Z,26.52
2023-01-17T18:10:42.553Z,26.55
2023-01-17T18:13:09.519Z,27.95
2023-01-17T18:15:36.465Z,26.05
2023-01-17T18:18:03.413Z,26.52
2023-01-17T18:20:30.319Z,27.80
2023-01-17T18:22:57.314Z,26.98
2023-01-17T18:25:25.292Z,26.90
2023-01-17T18:27:52.653Z,26.77
2023-01-17T18:30:19.804Z,26.45
2023-01-17T18:32:50.102Z,27.10
2023-01-17T18:35:21.147Z,27.05
2023-01-17T18:40:14.892Z,25.77
2023-01-17T18:42:41.956Z,26.40
2023-01-17T18:45:09.246Z,25.27
2023-01-17T18:47:38.776Z,25.83
2023-01-17T18:50:06.127Z,25.80
2023-01-17T18:52:35.135Z,24.88
2023-01-17T18:55:02.025Z,26.17
2023-01-17T18:57:31.415Z,25.65
2023-01-17T18:59:58.430Z,24.17
2023-01-17T19:02:25.356Z,24.70
2023-01-17T19:04:52.292Z,26.40
2023-01-17T19:07:21.272Z,25.48
2023-01-17T19:09:48.187Z,24.70
2023-01-17T19:12:15.077Z,24.52
2023-01-17T19:14:41.982Z,25.00
2023-01-17T19:17:08.912Z,25.60
2023-01-17T19:19:35.793Z,25.33
2023-01-17T19:22:02.667Z,23.02
2023-01-17T19:24:29.662Z,23.60
2023-01-17T19:26:56.581Z,23.35
2023-01-17T19:29:26.846Z,23.10
2023-01-17T19:31:53.849Z,23.23
2023-01-17T19:34:23.016Z,23.58
2023-01-17T19:36:49.899Z,23.70
2023-01-17T19:39:16.841Z,23.17
2023-01-17T19:41:45.858Z,22.30
2023-01-17T19:44:14.503Z,22.63
2023-01-17T19:46:41.462Z,21.17
2023-01-17T19:49:09.293Z,22.10
2023-01-17T19:51:37.282Z,22.70
2023-01-17T19:54:08.465Z,22.27
2023-01-17T19:56:35.569Z,23.38
2023-01-17T19:59:03.927Z,22.92
2023-01-17T20:01:35.566Z,20.70
2023-01-17T20:04:03.788Z,22.40
2023-01-17T20:06:34.040Z,22.42
2023-01-17T20:09:01.242Z,23.38
2023-01-17T20:11:28.715Z,24.02
2023-01-17T20:14:01.411Z,23.08
2023-01-17T20:16:30.373Z,23.52
2023-01-17T20:18:58.922Z,22.25
2023-01-17T20:21:29.068Z,22.95
2023-01-17T20:23:58.271Z,22.93
2023-01-17T20:26:31.254Z,21.50
2023-01-17T20:29:02.392Z,21.60
2023-01-17T20:33:57.220Z,20.75
2023-01-17T20:36:29.495Z,21.48
2023-01-17T20:38:57.472Z,21.13
2023-01-17T20:41:33.166Z,21.45
2023-01-17T20:44:02.018Z,21.52
2023-01-17T20:46:35.341Z,21.02
2023-01-17T20:49:05.461Z,20.27
2023-01-17T20:51:38.411Z,22.33
2023-01-17T20:54:06.637Z,20.77
2023-01-17T20:56:37.756Z,21.73
2023-01-17T20:59:07.739Z,21.73
2023-01-17T21:01:36.892Z,19.38
2023-01-17T21:04:04.733Z,21.98
2023-01-17T21:06:34.359Z,20.42
2023-01-17T21:09:01.613Z,20.83
2023-01-17T21:11:28.762Z,21.00
2023-01-17T21:13:56.374Z,20.10
2023-01-17T21:16:23.793Z,21.98
2023-01-17T21:18:58.169Z,20.02
2023-01-17T21:21:29.788Z,19.70
2023-01-17T21:23:59.276Z,19.83
2023-01-17T21:26:27.925Z,19.80
2023-01-17T21:28:58.433Z,18.98
2023-01-17T21:31:30.529Z,20.35
2023-01-17T21:34:02.783Z,19.73
2023-01-17T21:36:33.221Z,19.02
2023-01-17T21:39:04.978Z,19.98
2023-01-17T21:41:36.834Z,19.98
2023-01-17T21:44:10.194Z,18.50
2023-01-17T21:46:38.816Z,19.27
2023-01-17T21:49:06.653Z,19.90
2023-01-17T21:51:53.743Z,20.00
2023-01-17T21:54:44.750Z,19.75
2023-01-17T21:57:32.241Z,19.25
2023-01-17T21:59:59.114Z,19.02
2023-01-17T22:02:26.066Z,18.90
2023-01-17T22:04:54.741Z,19.65
2023-01-17T22:07:21.899Z,19.90
2023-01-17T22:09:48.853Z,19.52
2023-01-17T22:12:15.772Z,18.65
2023-01-17T22:14:42.635Z,19.40
2023-01-17T22:17:09.786Z,19.33
2023-01-17T22:19:36.723Z,19.55
2023-01-17T22:22:04.042Z,20.40
2023-01-17T22:24:30.984Z,19.05
2023-01-17T22:26:57.933Z,20.08
2023-01-17T22:29:24.860Z,18.40
2023-01-17T22:31:51.822Z,18.52
2023-01-17T22:34:19.072Z,18.50
2023-01-17T22:36:46.092Z,19.05
2023-01-17T22:39:13.085Z,20.38
2023-01-17T22:41:41.234Z,18.48
2023-01-17T22:44:08.597Z,19.23
2023-01-17T22:46:38.498Z,18.40
2023-01-17T22:49:09.551Z,18.63
2023-01-17T22:51:36.443Z,18.63
2023-01-17T22:54:03.546Z,19.33
2023-01-17T22:56:32.544Z,18.15
2023-01-17T22:59:01.306Z,18.92
2023-01-17T23:01:30.691Z,19.25
2023-01-17T23:04:00.243Z,19.05
2023-01-17T23:06:38.654Z,18.75
2023-01-17T23:09:08.967Z,18.30
2023-01-17T23:11:40.987Z,19.10
2023-01-17T23:14:19.302Z,19.45
2023-01-17T23:17:15.096Z,19.08
2023-01-17T23:19:52.563Z,19.40
2023-01-17T23:22:22.523Z,18.65
2023-01-17T23:24:59.681Z,18.27
2023-01-17T23:27:54.117Z,18.70
2023-01-17T23:30:29.231Z,18.38
2023-01-17T23:32:59.543Z,18.67
2023-01-17T23:35:29.236Z,18.23
2023-01-17T23:38:15.098Z,18.92
2023-01-17T23:40:43.328Z,18.58
2023-01-17T23:43:23.256Z,18.98
2023-01-17T23:45:54.460Z,18.77
2023-01-17T23:48:24.792Z,19.42
2023-01-17T23:50:52.178Z,19.65
2023-01-17T23:53:23.758Z,19.48
2023-01-17T23:55:54.310Z,19.17
2023-01-17T23:58:27.169Z,18.90
